Pintail — WDF5177 — position and weather

sailwx.info

Track history (hours):
 
Tides and Currents Weather Stations Pressure Air Temp Water Temp Dewpoint Dewpoint Depression Visibility Wind Speed Wind Dir Waves Ship Positions

Pintail

Owner: Pintail Marine Services, Inc, Friday Harbor, WA. More information available from US FCC via Universal Licensing System and Coast Guard Vessel Documentation Center.

Last reported at 2016-May-06 20:31 UTC. Time now 2016-May-06 22:31 UTC.
Position N 48°33' W 123°00'.

Length 19 m.

Type: Towing. MMSI: 367460260.

Date/timePositionNaut miles runAvg speedWind from/ knotsBaromVisibWave heightAir tempDewpointWater temp
2016-May-06 20:31N 48°33' W 123°00'2 1.4
2016-May-06 19:26N 48°32' W 122°60'0 0.0
2016-May-06 18:32N 48°32' W 122°60'0 0.0
2016-May-06 17:32N 48°32' W 122°60'0 0.0
2016-May-06 16:32N 48°32' W 122°60'0 0.0
2016-May-06 15:32N 48°32' W 122°60'0 0.0
2016-May-06 14:32N 48°32' W 122°60'0 0.0
2016-May-06 13:26N 48°32' W 122°60'0 0.0
2016-May-06 12:32N 48°32' W 122°60'0 0.0
2016-May-06 11:29N 48°32' W 122°60'0 0.0
2016-May-06 10:32N 48°32' W 122°60'0 0.0
2016-May-06 09:32N 48°32' W 122°60'0 0.0
2016-May-06 08:32N 48°32' W 122°60'0 0.0
2016-May-06 07:32N 48°32' W 122°60'0 0.0
2016-May-06 06:32N 48°32' W 122°60'0 0.0
2016-May-06 05:32N 48°32' W 122°60'0 0.0
2016-May-06 04:32N 48°32' W 122°60'0 0.0
2016-May-06 03:33N 48°32' W 122°60'0 0.0
2016-May-06 02:32N 48°32' W 122°60'0 0.0
2016-May-06 01:26N 48°32' W 122°60'0 0.0
2016-May-06 00:32N 48°32' W 122°60'0 0.0
2016-May-05 23:33N 48°32' W 122°60'0 0.0
2016-May-05 22:26N 48°32' W 122°60'0 0.1
2016-May-05 21:29N 48°32' W 123°00'4 4.6
2016-May-05 20:33N 48°34' W 122°54'5 4.7
2016-May-05 19:33N 48°32' W 122°48'6 5.5
2016-May-05 18:29N 48°32' W 122°39'2 1.9
2016-May-05 17:32N 48°31' W 122°36'0 0.0
2016-May-05 16:29N 48°31' W 122°36'0 0.0
2016-May-05 15:26N 48°31' W 122°36'0 0.0
2016-May-05 14:32N 48°31' W 122°36'0 0.0
2016-May-05 13:26N 48°31' W 122°36'0 0.0
2016-May-05 12:32N 48°31' W 122°36'0 0.0
2016-May-05 11:32N 48°31' W 122°36'0 0.0
2016-May-05 10:32N 48°31' W 122°36'0 0.0
2016-May-05 09:14N 48°31' W 122°36'0 0.0
2016-May-05 08:32N 48°31' W 122°36'0 0.0
2016-May-05 07:32N 48°31' W 122°36'0 0.0
2016-May-05 06:32N 48°31' W 122°36'0 0.0
2016-May-05 05:26N 48°31' W 122°36'0 0.0
2016-May-05 04:32N 48°31' W 122°36'0 0.0
2016-May-05 03:32N 48°31' W 122°36'0 0.0
2016-May-05 02:32N 48°31' W 122°36'0 0.0
2016-May-05 01:26N 48°31' W 122°36'0 0.0
2016-May-05 00:32N 48°31' W 122°36'0 0.0
2016-May-04 23:32N 48°31' W 122°36'0 0.4
2016-May-04 22:33N 48°31' W 122°37'7 6.2
2016-May-04 21:29N 48°31' W 122°47'5 5.5
2016-May-04 20:33N 48°34' W 122°53'5 4.9
2016-May-04 19:31N 48°32' W 123°00'0 0.1
2016-May-04 18:32N 48°32' W 122°60'0 0.0
2016-May-04 17:32N 48°32' W 122°60'0 0.0
2016-May-04 16:32N 48°32' W 122°60'0 0.0
2016-May-04 15:32N 48°32' W 122°60'0 0.0
2016-May-04 14:32N 48°32' W 122°60'0 0.0
2016-May-04 13:32N 48°32' W 122°60'0 0.0
2016-May-04 12:32N 48°32' W 122°60'0 0.0
2016-May-04 11:32N 48°32' W 122°60'0 0.0
2016-May-04 10:32N 48°32' W 122°60'0 0.0
2016-May-04 09:32N 48°32' W 122°60'0 0.0
2016-May-04 08:32N 48°32' W 122°60'0 0.0
2016-May-04 07:29N 48°32' W 122°60'0 0.0
2016-May-04 06:32N 48°32' W 122°60'0 0.0
2016-May-04 05:29N 48°32' W 122°60'0 0.0
2016-May-04 04:32N 48°32' W 122°60'0 0.0
2016-May-04 03:32N 48°32' W 122°60'0 0.0
2016-May-04 02:32N 48°32' W 122°60'0 0.0
2016-May-04 01:32N 48°32' W 122°60'0 0.0
2016-May-04 00:32N 48°32' W 122°60'0 0.0
2016-May-03 23:29N 48°32' W 122°60'0 0.0
2016-May-03 22:32N 48°32' W 122°60'0 0.0
2016-May-03 21:32N 48°32' W 122°60'0 0.0
2016-May-03 20:32N 48°32' W 122°60'0 0.0
2016-May-03 19:32N 48°32' W 122°60'0 0.0
2016-May-03 18:32N 48°32' W 122°60'0 0.0
2016-May-03 17:32N 48°32' W 122°60'0 0.3
2016-May-03 16:33N 48°32' W 123°00'0 0.3
2016-May-03 15:32N 48°32' W 122°60'0 0.0
2016-May-03 14:29N 48°32' W 122°60'0 0.0
2016-May-03 13:32N 48°32' W 122°60'0 0.0
2016-May-03 12:32N 48°32' W 122°60'0 0.0
2016-May-03 11:32N 48°32' W 122°60'0 0.0
2016-May-03 10:32N 48°32' W 122°60'0 0.0
2016-May-03 09:32N 48°32' W 122°60'0 0.0
2016-May-03 08:32N 48°32' W 122°60'0 0.0
2016-May-03 07:32N 48°32' W 122°60'0 0.0
2016-May-03 06:32N 48°32' W 122°60'0 0.0
2016-May-03 05:33N 48°32' W 122°60'0 0.0
2016-May-03 04:32N 48°32' W 122°60'0 0.0
2016-May-03 03:32N 48°32' W 122°60'0 0.0
2016-May-03 02:29N 48°32' W 122°60'0 0.0
2016-May-03 01:32N 48°32' W 122°60'0 0.0
2016-May-03 00:32N 48°32' W 122°60'0 0.0
2016-May-02 23:26N 48°32' W 122°60'0 0.0
2016-May-02 22:32N 48°32' W 122°60'0 0.0
2016-May-02 21:32N 48°32' W 122°60'0 0.1
2016-May-02 20:31N 48°32' W 123°00'5 4.8
2016-May-02 19:33N 48°34' W 122°54'5 5.2
2016-May-02 18:33N 48°32' W 122°46'6 6.0
2016-May-02 17:33N 48°31' W 122°38'7 3.7
2016-May-02 15:33N 48°32' W 122°49'5 5.4
2016-May-02 14:33N 48°33' W 122°57'2 2.4
2016-May-02 13:32N 48°32' W 122°60'0 0.0
2016-May-02 12:32N 48°32' W 122°60'0 0.0
2016-May-02 11:32N 48°32' W 122°60'0 0.0
2016-May-02 10:32N 48°32' W 122°60'0 0.0
2016-May-02 09:32N 48°32' W 122°60'0 0.0
2016-May-02 08:32N 48°32' W 122°60'0 0.0
2016-May-02 07:32N 48°32' W 122°60'0 0.0
2016-May-02 06:32N 48°32' W 122°60'0 0.0
2016-May-02 05:32N 48°32' W 122°60'0 0.0
2016-May-02 04:32N 48°32' W 122°60'0 0.0
2016-May-02 03:29N 48°32' W 122°60'0 0.0
2016-May-02 02:32N 48°32' W 122°60'0 0.0
2016-May-02 01:32N 48°32' W 122°60'0 0.0
2016-May-02 00:33N 48°32' W 122°60'0 0.0
2016-May-01 23:32N 48°32' W 122°60'1 0.8
2016-May-01 22:29N 48°32' W 123°01'1 0.8
2016-May-01 21:32N 48°32' W 122°60'0 0.0
2016-May-01 20:26N 48°32' W 122°60'0 0.0
2016-May-01 19:29N 48°32' W 122°60'0 0.0
2016-May-01 18:32N 48°32' W 122°60'0 0.0
2016-May-01 17:32N 48°32' W 122°60'0 0.0
2016-May-01 16:32N 48°32' W 122°60'0 0.0
2016-May-01 15:33N 48°32' W 122°60'0 0.0
2016-May-01 14:32N 48°32' W 122°60'0 0.0
2016-May-01 13:32N 48°32' W 122°60'0 0.0
2016-May-01 12:29N 48°32' W 122°60'0 0.0
2016-May-01 11:29N 48°32' W 122°60'0 0.0
2016-May-01 10:32N 48°32' W 122°60'0 0.0
2016-May-01 09:32N 48°32' W 122°60'0 0.0
2016-May-01 08:32N 48°32' W 122°60'0 0.0
2016-May-01 07:32N 48°32' W 122°60'0 0.0
2016-May-01 06:32N 48°32' W 122°60'0 0.0
2016-May-01 05:32N 48°32' W 122°60'0 0.0
2016-May-01 04:32N 48°32' W 122°60'0 0.0
2016-May-01 03:32N 48°32' W 122°60'0 0.0
2016-May-01 02:32N 48°32' W 122°60'0 0.0
2016-May-01 01:32N 48°32' W 122°60'0 0.0
2016-May-01 00:32N 48°32' W 122°60'0 0.0
2016-Apr-30 23:29N 48°32' W 122°60'0 0.0
2016-Apr-30 22:32N 48°32' W 122°60'0 0.0
2016-Apr-30 21:32N 48°32' W 122°60'0 0.0
2016-Apr-30 20:32N 48°32' W 122°60'0 0.0
2016-Apr-30 19:32N 48°32' W 122°60'0 0.0
2016-Apr-30 18:32N 48°32' W 122°60'0 0.0
2016-Apr-30 17:32N 48°32' W 122°60'0 0.0
2016-Apr-30 16:32N 48°32' W 122°60'0 0.0
2016-Apr-30 15:29N 48°32' W 122°60'0 0.0
2016-Apr-30 14:32N 48°32' W 122°60'0 0.0
2016-Apr-30 13:32N 48°32' W 122°60'0 0.0
2016-Apr-30 12:32N 48°32' W 122°60'0 0.0
2016-Apr-30 11:32N 48°32' W 122°60'0 0.0
2016-Apr-30 10:33N 48°32' W 122°60'0 0.0
2016-Apr-30 09:27N 48°32' W 122°60'0 0.0
2016-Apr-30 08:30N 48°32' W 122°60'0 0.0
2016-Apr-30 07:33N 48°32' W 122°60'0 0.0
2016-Apr-30 06:33N 48°32' W 122°60'0 0.0
2016-Apr-30 05:33N 48°32' W 122°60'0 0.0
2016-Apr-30 04:30N 48°32' W 122°60'0 0.0
2016-Apr-30 03:33N 48°32' W 122°60'0 0.0
2016-Apr-30 02:33N 48°32' W 122°60'0 0.0
2016-Apr-30 01:33N 48°32' W 122°60'0 0.0
2016-Apr-30 00:33N 48°32' W 122°60'0 0.0
2016-Apr-29 23:33N 48°32' W 122°60'0 0.0
2016-Apr-29 22:33N 48°32' W 122°60'0 0.0
2016-Apr-29 21:33N 48°32' W 122°60'0 0.0
2016-Apr-29 20:30N 48°32' W 122°60'0 0.0
2016-Apr-29 19:33N 48°32' W 122°60'0 0.0
2016-Apr-29 18:33N 48°32' W 122°60'0 0.0
2016-Apr-29 17:33N 48°32' W 122°60'0 0.0
2016-Apr-29 16:33N 48°32' W 122°60'0 0.0
2016-Apr-29 15:33N 48°32' W 122°60'0 0.0
2016-Apr-29 14:32N 48°32' W 122°60'0 0.0
2016-Apr-29 13:32N 48°32' W 122°60'0 0.0
2016-Apr-29 12:32N 48°32' W 122°60'0 0.0
2016-Apr-29 11:32N 48°32' W 122°60'0 0.0
2016-Apr-29 10:29N 48°32' W 122°60'0 0.0
2016-Apr-29 09:32N 48°32' W 122°60'0 0.0
2016-Apr-29 08:32N 48°32' W 122°60'0 0.0
2016-Apr-29 07:32N 48°32' W 122°60'0 0.0
2016-Apr-29 06:32N 48°32' W 122°60'0 0.0
2016-Apr-29 05:29N 48°32' W 122°60'0 0.0
2016-Apr-29 04:32N 48°32' W 122°60'0 0.0
2016-Apr-29 03:32N 48°32' W 122°60'0 0.0
2016-Apr-29 02:32N 48°32' W 122°60'0 0.0
2016-Apr-29 01:32N 48°32' W 122°60'0 0.0
2016-Apr-29 00:29N 48°32' W 122°60'0 0.0
2016-Apr-28 23:29N 48°32' W 122°60'0 0.0
2016-Apr-28 22:32N 48°32' W 122°60'0 0.0
2016-Apr-28 21:29N 48°32' W 122°60'0 0.1
2016-Apr-28 20:32N 48°32' W 123°00'4 4.3
2016-Apr-28 19:33N 48°34' W 122°54'6 5.5
2016-Apr-28 18:33N 48°32' W 122°47'7 6.9
2016-Apr-28 17:33N 48°31' W 122°36'8 4.2
2016-Apr-28 15:33N 48°32' W 122°49'5 5.2
2016-Apr-28 14:33N 48°33' W 122°57'2 2.4
2016-Apr-28 13:33N 48°32' W 122°60'0 0.0
2016-Apr-28 12:33N 48°32' W 122°60'0 0.0
2016-Apr-28 11:33N 48°32' W 122°60'0 0.0
2016-Apr-28 10:33N 48°32' W 122°60'0 0.0
2016-Apr-28 09:30N 48°32' W 122°60'0 0.0
2016-Apr-28 08:27N 48°32' W 122°60'0 0.0
2016-Apr-28 07:33N 48°32' W 122°60'0 0.0
2016-Apr-28 06:33N 48°32' W 122°60'0 0.0
2016-Apr-28 05:27N 48°32' W 122°60'0 0.0
2016-Apr-28 04:33N 48°32' W 122°60'0 0.0
2016-Apr-28 03:33N 48°32' W 122°60'0 0.0
2016-Apr-28 02:30N 48°32' W 122°60'0 0.0
2016-Apr-28 01:33N 48°32' W 122°60'0 0.0
2016-Apr-28 00:30N 48°32' W 122°60'0 0.0
2016-Apr-27 23:30N 48°32' W 122°60'0 0.0
2016-Apr-27 22:33N 48°32' W 122°60'0 0.0
2016-Apr-27 21:33N 48°32' W 122°60'0 0.0
2016-Apr-27 20:30N 48°32' W 122°60'0 0.0
2016-Apr-27 19:33N 48°32' W 122°60'0 0.0
2016-Apr-27 18:33N 48°32' W 122°60'0 0.0
2016-Apr-27 17:33N 48°32' W 122°60'0 0.0
2016-Apr-27 16:33N 48°32' W 122°60'0 0.0
2016-Apr-27 15:33N 48°32' W 122°60'0 0.0
2016-Apr-27 14:33N 48°32' W 122°60'0 0.0
2016-Apr-27 13:33N 48°32' W 122°60'0 0.0
2016-Apr-27 12:33N 48°32' W 122°60'0 0.0
2016-Apr-27 11:33N 48°32' W 122°60'0 0.0
2016-Apr-27 10:33N 48°32' W 122°60'0 0.0
2016-Apr-27 09:33N 48°32' W 122°60'0 0.0
2016-Apr-27 08:33N 48°32' W 122°60'0 0.0
2016-Apr-27 07:33N 48°32' W 122°60'0 0.0
2016-Apr-27 06:33N 48°32' W 122°60'0 0.0
2016-Apr-27 05:33N 48°32' W 122°60'0 0.0
2016-Apr-27 04:33N 48°32' W 122°60'0 0.0
2016-Apr-27 03:32N 48°32' W 122°60'0 0.0
2016-Apr-27 02:32N 48°32' W 122°60'0 0.0
2016-Apr-27 01:32N 48°32' W 122°60'0 0.0
2016-Apr-27 00:24N 48°32' W 122°60'0 0.1
2016-Apr-26 23:33N 48°32' W 123°00'0 0.1
2016-Apr-26 22:30N 48°32' W 122°60'0 0.0
2016-Apr-26 21:33N 48°32' W 122°60'0 0.0
2016-Apr-26 20:33N 48°32' W 122°60'  
Track history (hours):
 
Tides and Currents Weather Stations Pressure Air Temp Water Temp Dewpoint Dewpoint Depression Visibility Wind Speed Wind Dir Waves Ship Positions

Pintail

Owner: Pintail Marine Services, Inc, Friday Harbor, WA. More information available from US FCC via Universal Licensing System and Coast Guard Vessel Documentation Center.

Last reported at 2016-May-06 20:31 UTC. Time now 2016-May-06 22:31 UTC.
Position N 48°33' W 123°00'.

Length 19 m.

Type: Towing. MMSI: 367460260.

Date/timePositionNaut miles runAvg speedWind from/ knotsBaromVisibWave heightAir tempDewpointWater temp
2016-May-06 20:31N 48°33' W 123°00'2 1.4
2016-May-06 19:26N 48°32' W 122°60'0 0.0
2016-May-06 18:32N 48°32' W 122°60'0 0.0
2016-May-06 17:32N 48°32' W 122°60'0 0.0
2016-May-06 16:32N 48°32' W 122°60'0 0.0
2016-May-06 15:32N 48°32' W 122°60'0 0.0
2016-May-06 14:32N 48°32' W 122°60'0 0.0
2016-May-06 13:26N 48°32' W 122°60'0 0.0
2016-May-06 12:32N 48°32' W 122°60'0 0.0
2016-May-06 11:29N 48°32' W 122°60'0 0.0
2016-May-06 10:32N 48°32' W 122°60'0 0.0
2016-May-06 09:32N 48°32' W 122°60'0 0.0
2016-May-06 08:32N 48°32' W 122°60'0 0.0
2016-May-06 07:32N 48°32' W 122°60'0 0.0
2016-May-06 06:32N 48°32' W 122°60'0 0.0
2016-May-06 05:32N 48°32' W 122°60'0 0.0
2016-May-06 04:32N 48°32' W 122°60'0 0.0
2016-May-06 03:33N 48°32' W 122°60'0 0.0
2016-May-06 02:32N 48°32' W 122°60'0 0.0
2016-May-06 01:26N 48°32' W 122°60'0 0.0
2016-May-06 00:32N 48°32' W 122°60'0 0.0
2016-May-05 23:33N 48°32' W 122°60'0 0.0
2016-May-05 22:26N 48°32' W 122°60'0 0.1
2016-May-05 21:29N 48°32' W 123°00'4 4.6
2016-May-05 20:33N 48°34' W 122°54'5 4.7
2016-May-05 19:33N 48°32' W 122°48'6 5.5
2016-May-05 18:29N 48°32' W 122°39'2 1.9
2016-May-05 17:32N 48°31' W 122°36'0 0.0
2016-May-05 16:29N 48°31' W 122°36'0 0.0
2016-May-05 15:26N 48°31' W 122°36'0 0.0
2016-May-05 14:32N 48°31' W 122°36'0 0.0
2016-May-05 13:26N 48°31' W 122°36'0 0.0
2016-May-05 12:32N 48°31' W 122°36'0 0.0
2016-May-05 11:32N 48°31' W 122°36'0 0.0
2016-May-05 10:32N 48°31' W 122°36'0 0.0
2016-May-05 09:14N 48°31' W 122°36'0 0.0
2016-May-05 08:32N 48°31' W 122°36'0 0.0
2016-May-05 07:32N 48°31' W 122°36'0 0.0
2016-May-05 06:32N 48°31' W 122°36'0 0.0
2016-May-05 05:26N 48°31' W 122°36'0 0.0
2016-May-05 04:32N 48°31' W 122°36'0 0.0
2016-May-05 03:32N 48°31' W 122°36'0 0.0
2016-May-05 02:32N 48°31' W 122°36'0 0.0
2016-May-05 01:26N 48°31' W 122°36'0 0.0
2016-May-05 00:32N 48°31' W 122°36'0 0.0
2016-May-04 23:32N 48°31' W 122°36'0 0.4
2016-May-04 22:33N 48°31' W 122°37'7 6.2
2016-May-04 21:29N 48°31' W 122°47'5 5.5
2016-May-04 20:33N 48°34' W 122°53'5 4.9
2016-May-04 19:31N 48°32' W 123°00'0 0.1
2016-May-04 18:32N 48°32' W 122°60'0 0.0
2016-May-04 17:32N 48°32' W 122°60'0 0.0
2016-May-04 16:32N 48°32' W 122°60'0 0.0
2016-May-04 15:32N 48°32' W 122°60'0 0.0
2016-May-04 14:32N 48°32' W 122°60'0 0.0
2016-May-04 13:32N 48°32' W 122°60'0 0.0
2016-May-04 12:32N 48°32' W 122°60'0 0.0
2016-May-04 11:32N 48°32' W 122°60'0 0.0
2016-May-04 10:32N 48°32' W 122°60'0 0.0
2016-May-04 09:32N 48°32' W 122°60'0 0.0
2016-May-04 08:32N 48°32' W 122°60'0 0.0
2016-May-04 07:29N 48°32' W 122°60'0 0.0
2016-May-04 06:32N 48°32' W 122°60'0 0.0
2016-May-04 05:29N 48°32' W 122°60'0 0.0
2016-May-04 04:32N 48°32' W 122°60'0 0.0
2016-May-04 03:32N 48°32' W 122°60'0 0.0
2016-May-04 02:32N 48°32' W 122°60'0 0.0
2016-May-04 01:32N 48°32' W 122°60'0 0.0
2016-May-04 00:32N 48°32' W 122°60'0 0.0
2016-May-03 23:29N 48°32' W 122°60'0 0.0
2016-May-03 22:32N 48°32' W 122°60'0 0.0
2016-May-03 21:32N 48°32' W 122°60'0 0.0
2016-May-03 20:32N 48°32' W 122°60'0 0.0
2016-May-03 19:32N 48°32' W 122°60'0 0.0
2016-May-03 18:32N 48°32' W 122°60'0 0.0
2016-May-03 17:32N 48°32' W 122°60'0 0.3
2016-May-03 16:33N 48°32' W 123°00'0 0.3
2016-May-03 15:32N 48°32' W 122°60'0 0.0
2016-May-03 14:29N 48°32' W 122°60'0 0.0
2016-May-03 13:32N 48°32' W 122°60'0 0.0
2016-May-03 12:32N 48°32' W 122°60'0 0.0
2016-May-03 11:32N 48°32' W 122°60'0 0.0
2016-May-03 10:32N 48°32' W 122°60'0 0.0
2016-May-03 09:32N 48°32' W 122°60'0 0.0
2016-May-03 08:32N 48°32' W 122°60'0 0.0
2016-May-03 07:32N 48°32' W 122°60'0 0.0
2016-May-03 06:32N 48°32' W 122°60'0 0.0
2016-May-03 05:33N 48°32' W 122°60'0 0.0
2016-May-03 04:32N 48°32' W 122°60'0 0.0
2016-May-03 03:32N 48°32' W 122°60'0 0.0
2016-May-03 02:29N 48°32' W 122°60'0 0.0
2016-May-03 01:32N 48°32' W 122°60'0 0.0
2016-May-03 00:32N 48°32' W 122°60'0 0.0
2016-May-02 23:26N 48°32' W 122°60'0 0.0
2016-May-02 22:32N 48°32' W 122°60'0 0.0
2016-May-02 21:32N 48°32' W 122°60'0 0.1
2016-May-02 20:31N 48°32' W 123°00'5 4.8
2016-May-02 19:33N 48°34' W 122°54'5 5.2
2016-May-02 18:33N 48°32' W 122°46'6 6.0
2016-May-02 17:33N 48°31' W 122°38'7 3.7
2016-May-02 15:33N 48°32' W 122°49'5 5.4
2016-May-02 14:33N 48°33' W 122°57'2 2.4
2016-May-02 13:32N 48°32' W 122°60'0 0.0
2016-May-02 12:32N 48°32' W 122°60'0 0.0
2016-May-02 11:32N 48°32' W 122°60'0 0.0
2016-May-02 10:32N 48°32' W 122°60'0 0.0
2016-May-02 09:32N 48°32' W 122°60'0 0.0
2016-May-02 08:32N 48°32' W 122°60'0 0.0
2016-May-02 07:32N 48°32' W 122°60'0 0.0
2016-May-02 06:32N 48°32' W 122°60'0 0.0
2016-May-02 05:32N 48°32' W 122°60'0 0.0
2016-May-02 04:32N 48°32' W 122°60'0 0.0
2016-May-02 03:29N 48°32' W 122°60'0 0.0
2016-May-02 02:32N 48°32' W 122°60'0 0.0
2016-May-02 01:32N 48°32' W 122°60'0 0.0
2016-May-02 00:33N 48°32' W 122°60'0 0.0
2016-May-01 23:32N 48°32' W 122°60'1 0.8
2016-May-01 22:29N 48°32' W 123°01'1 0.8
2016-May-01 21:32N 48°32' W 122°60'0 0.0
2016-May-01 20:26N 48°32' W 122°60'0 0.0
2016-May-01 19:29N 48°32' W 122°60'0 0.0
2016-May-01 18:32N 48°32' W 122°60'0 0.0
2016-May-01 17:32N 48°32' W 122°60'0 0.0
2016-May-01 16:32N 48°32' W 122°60'0 0.0
2016-May-01 15:33N 48°32' W 122°60'0 0.0
2016-May-01 14:32N 48°32' W 122°60'0 0.0
2016-May-01 13:32N 48°32' W 122°60'0 0.0
2016-May-01 12:29N 48°32' W 122°60'0 0.0
2016-May-01 11:29N 48°32' W 122°60'0 0.0
2016-May-01 10:32N 48°32' W 122°60'0 0.0
2016-May-01 09:32N 48°32' W 122°60'0 0.0
2016-May-01 08:32N 48°32' W 122°60'0 0.0
2016-May-01 07:32N 48°32' W 122°60'0 0.0
2016-May-01 06:32N 48°32' W 122°60'0 0.0
2016-May-01 05:32N 48°32' W 122°60'0 0.0
2016-May-01 04:32N 48°32' W 122°60'0 0.0
2016-May-01 03:32N 48°32' W 122°60'0 0.0
2016-May-01 02:32N 48°32' W 122°60'0 0.0
2016-May-01 01:32N 48°32' W 122°60'0 0.0
2016-May-01 00:32N 48°32' W 122°60'0 0.0
2016-Apr-30 23:29N 48°32' W 122°60'0 0.0
2016-Apr-30 22:32N 48°32' W 122°60'0 0.0
2016-Apr-30 21:32N 48°32' W 122°60'0 0.0
2016-Apr-30 20:32N 48°32' W 122°60'0 0.0
2016-Apr-30 19:32N 48°32' W 122°60'0 0.0
2016-Apr-30 18:32N 48°32' W 122°60'0 0.0
2016-Apr-30 17:32N 48°32' W 122°60'0 0.0
2016-Apr-30 16:32N 48°32' W 122°60'0 0.0
2016-Apr-30 15:29N 48°32' W 122°60'0 0.0
2016-Apr-30 14:32N 48°32' W 122°60'0 0.0
2016-Apr-30 13:32N 48°32' W 122°60'0 0.0
2016-Apr-30 12:32N 48°32' W 122°60'0 0.0
2016-Apr-30 11:32N 48°32' W 122°60'0 0.0
2016-Apr-30 10:33N 48°32' W 122°60'0 0.0
2016-Apr-30 09:27N 48°32' W 122°60'0 0.0
2016-Apr-30 08:30N 48°32' W 122°60'0 0.0
2016-Apr-30 07:33N 48°32' W 122°60'0 0.0
2016-Apr-30 06:33N 48°32' W 122°60'0 0.0
2016-Apr-30 05:33N 48°32' W 122°60'0 0.0
2016-Apr-30 04:30N 48°32' W 122°60'0 0.0
2016-Apr-30 03:33N 48°32' W 122°60'0 0.0
2016-Apr-30 02:33N 48°32' W 122°60'0 0.0
2016-Apr-30 01:33N 48°32' W 122°60'0 0.0
2016-Apr-30 00:33N 48°32' W 122°60'0 0.0
2016-Apr-29 23:33N 48°32' W 122°60'0 0.0
2016-Apr-29 22:33N 48°32' W 122°60'0 0.0
2016-Apr-29 21:33N 48°32' W 122°60'0 0.0
2016-Apr-29 20:30N 48°32' W 122°60'0 0.0
2016-Apr-29 19:33N 48°32' W 122°60'0 0.0
2016-Apr-29 18:33N 48°32' W 122°60'0 0.0
2016-Apr-29 17:33N 48°32' W 122°60'0 0.0
2016-Apr-29 16:33N 48°32' W 122°60'0 0.0
2016-Apr-29 15:33N 48°32' W 122°60'0 0.0
2016-Apr-29 14:32N 48°32' W 122°60'0 0.0
2016-Apr-29 13:32N 48°32' W 122°60'0 0.0
2016-Apr-29 12:32N 48°32' W 122°60'0 0.0
2016-Apr-29 11:32N 48°32' W 122°60'0 0.0
2016-Apr-29 10:29N 48°32' W 122°60'0 0.0
2016-Apr-29 09:32N 48°32' W 122°60'0 0.0
2016-Apr-29 08:32N 48°32' W 122°60'0 0.0
2016-Apr-29 07:32N 48°32' W 122°60'0 0.0
2016-Apr-29 06:32N 48°32' W 122°60'0 0.0
2016-Apr-29 05:29N 48°32' W 122°60'0 0.0
2016-Apr-29 04:32N 48°32' W 122°60'0 0.0
2016-Apr-29 03:32N 48°32' W 122°60'0 0.0
2016-Apr-29 02:32N 48°32' W 122°60'0 0.0
2016-Apr-29 01:32N 48°32' W 122°60'0 0.0
2016-Apr-29 00:29N 48°32' W 122°60'0 0.0
2016-Apr-28 23:29N 48°32' W 122°60'0 0.0
2016-Apr-28 22:32N 48°32' W 122°60'0 0.0
2016-Apr-28 21:29N 48°32' W 122°60'0 0.1
2016-Apr-28 20:32N 48°32' W 123°00'4 4.3
2016-Apr-28 19:33N 48°34' W 122°54'6 5.5
2016-Apr-28 18:33N 48°32' W 122°47'7 6.9
2016-Apr-28 17:33N 48°31' W 122°36'8 4.2
2016-Apr-28 15:33N 48°32' W 122°49'5 5.2
2016-Apr-28 14:33N 48°33' W 122°57'2 2.4
2016-Apr-28 13:33N 48°32' W 122°60'0 0.0
2016-Apr-28 12:33N 48°32' W 122°60'0 0.0
2016-Apr-28 11:33N 48°32' W 122°60'0 0.0
2016-Apr-28 10:33N 48°32' W 122°60'0 0.0
2016-Apr-28 09:30N 48°32' W 122°60'0 0.0
2016-Apr-28 08:27N 48°32' W 122°60'0 0.0
2016-Apr-28 07:33N 48°32' W 122°60'0 0.0
2016-Apr-28 06:33N 48°32' W 122°60'0 0.0
2016-Apr-28 05:27N 48°32' W 122°60'0 0.0
2016-Apr-28 04:33N 48°32' W 122°60'0 0.0
2016-Apr-28 03:33N 48°32' W 122°60'0 0.0
2016-Apr-28 02:30N 48°32' W 122°60'0 0.0
2016-Apr-28 01:33N 48°32' W 122°60'0 0.0
2016-Apr-28 00:30N 48°32' W 122°60'0 0.0
2016-Apr-27 23:30N 48°32' W 122°60'0 0.0
2016-Apr-27 22:33N 48°32' W 122°60'0 0.0
2016-Apr-27 21:33N 48°32' W 122°60'0 0.0
2016-Apr-27 20:30N 48°32' W 122°60'0 0.0
2016-Apr-27 19:33N 48°32' W 122°60'0 0.0
2016-Apr-27 18:33N 48°32' W 122°60'0 0.0
2016-Apr-27 17:33N 48°32' W 122°60'0 0.0
2016-Apr-27 16:33N 48°32' W 122°60'0 0.0
2016-Apr-27 15:33N 48°32' W 122°60'0 0.0
2016-Apr-27 14:33N 48°32' W 122°60'0 0.0
2016-Apr-27 13:33N 48°32' W 122°60'0 0.0
2016-Apr-27 12:33N 48°32' W 122°60'0 0.0
2016-Apr-27 11:33N 48°32' W 122°60'0 0.0
2016-Apr-27 10:33N 48°32' W 122°60'0 0.0
2016-Apr-27 09:33N 48°32' W 122°60'0 0.0
2016-Apr-27 08:33N 48°32' W 122°60'0 0.0
2016-Apr-27 07:33N 48°32' W 122°60'0 0.0
2016-Apr-27 06:33N 48°32' W 122°60'0 0.0
2016-Apr-27 05:33N 48°32' W 122°60'0 0.0
2016-Apr-27 04:33N 48°32' W 122°60'0 0.0
2016-Apr-27 03:32N 48°32' W 122°60'0 0.0
2016-Apr-27 02:32N 48°32' W 122°60'0 0.0
2016-Apr-27 01:32N 48°32' W 122°60'0 0.0
2016-Apr-27 00:24N 48°32' W 122°60'0 0.1
2016-Apr-26 23:33N 48°32' W 123°00'0 0.1
2016-Apr-26 22:30N 48°32' W 122°60'0 0.0
2016-Apr-26 21:33N 48°32' W 122°60'0 0.0
2016-Apr-26 20:33N 48°32' W 122°60'  

Dump ship's entire track history